Sorrento, Florida
Current Conditions -  °F | °C
As of 9:53 PM on Tuesday 25 Nov 2014 (Local Time) from KLEE Reporting Station
Light Rain Light Rain  
Wind Chill: 69°   Ceiling: 9000
Heat Index: 69°   Visibility: 7mi
Dew Point: 68°   Wind: 9mph
Humidity: 96%   Direction: 140°SE
Pressure: 29.89"   Gusts: NA
Location:  28.81°N, 81.56°W
Report Text: KLEE 260253Z AUTO 14008KT 7SM -RA FEW006 SCT075 BKN090 21/20 A2989 RMK AO2 LTG DSNT E-SW SLP122 P0017 60091 T02060200 56013
Loading
Personal Weather Stations






























Interactive Weather Map New forecast layout! Learn more

10-Day Weather Forecast

Advertisements
Track Severe Weather on mobile